Terminal Aerodrome Forecast
Issued by NWS

Home | Current Version | Previous Version | Text Only | Print | Product List | Glossary On
Versions: 1 2 3 4 5 6 7 8 9 10 11 12 13 14 15 16 17
000
FTUS43 KICT 020500
TAFHUT
TAF
KHUT 020520Z 0206/0306 06007KT P6SM SCT050
     FM020900 VRB03KT 3SM BR SCT005
     FM021500 09008KT P6SM FEW020
     FM022000 12008KT P6SM VCTS SCT040CB BKN070
     FM030300 14010KT P6SM VCTS BKN070CB=

USA.gov is the U.S. government's official web portal to all federal, state and local government web resources and services.